Time;durP1;ratioP1;P1;durP2;ratioP2;P2;SDS_P1;SDS_P2;PMS_P1;PMS_P2;Temp;Humidity;BMP_temperature;BMP_pressure;BME280_temperature;BME280_humidity;BME280_pressure;Samples;Min_cycle;Max_cycle;Signal;HPM_P1;HPM_P2
2024/03/18 00:01:55;;;;;;;10.55;6.60;;;;;;;13.38;63.02;99769.09;5090027;28;20032;-26
2024/03/18 00:04:20;;;;;;;8.93;6.57;;;;;;;13.19;62.97;99774.38;5090176;28;20381;-25
2024/03/18 00:06:46;;;;;;;8.63;6.32;;;;;;;13.42;62.61;99764.94;5090375;28;20039;-25
2024/03/18 00:09:11;;;;;;;9.05;6.28;;;;;;;13.08;63.22;99764.41;5090748;28;20463;-26
2024/03/18 00:11:36;;;;;;;9.60;6.78;;;;;;;13.41;62.41;99757.97;5094312;28;20452;-26
2024/03/18 00:14:02;;;;;;;9.75;6.72;;;;;;;13.64;61.60;99765.31;5094331;28;20103;-25
2024/03/18 00:16:28;;;;;;;9.32;6.75;;;;;;;13.48;61.87;99751.50;5094612;28;20039;-25
2024/03/18 00:18:54;;;;;;;11.02;6.70;;;;;;;13.29;62.59;99750.66;5094061;28;20373;-25
2024/03/18 00:21:19;;;;;;;10.80;6.88;;;;;;;13.24;62.17;99745.13;5094389;28;20084;-26
2024/03/18 00:23:45;;;;;;;13.00;6.18;;;;;;;12.75;64.20;99748.66;5094192;28;20039;-26
2024/03/18 00:26:10;;;;;;;9.63;6.30;;;;;;;12.96;63.71;99745.59;5093758;28;20028;-26
2024/03/18 00:28:35;;;;;;;9.25;6.63;;;;;;;12.82;64.49;99734.22;5093916;28;20068;-26
2024/03/18 00:31:01;;;;;;;9.13;6.80;;;;;;;13.00;64.13;99745.97;5093909;28;20024;-26
2024/03/18 00:33:26;;;;;;;9.20;6.57;;;;;;;12.94;63.88;99744.19;5094003;28;20086;-25
2024/03/18 00:35:56;;;;;;;9.98;6.68;;;;;;;13.23;63.37;99742.69;5093808;28;20328;-26
2024/03/18 00:38:21;;;;;;;10.18;6.70;;;;;;;13.26;63.11;99740.38;5093685;28;20076;-26
2024/03/18 00:40:56;;;;;;;8.82;6.15;;;;;;;13.09;63.46;99734.78;5093529;28;20078;-26
2024/03/18 00:43:22;;;;;;;10.13;6.60;;;;;;;13.12;63.19;99728.22;5093957;28;20037;-25
2024/03/18 00:45:48;;;;;;;10.23;6.78;;;;;;;12.92;63.75;99720.38;5093725;28;20031;-26
2024/03/18 00:48:13;;;;;;;10.32;6.72;;;;;;;12.93;63.48;99723.84;5093627;28;20047;-26
2024/03/18 00:50:39;;;;;;;10.52;6.78;;;;;;;12.98;63.10;99730.16;5093611;28;20027;-26
2024/03/18 00:53:04;;;;;;;10.15;6.43;;;;;;;12.70;64.25;99728.78;5093606;28;20475;-26
2024/03/18 00:55:33;;;;;;;9.18;6.45;;;;;;;12.94;62.98;99733.50;5093274;28;20020;-27
2024/03/18 00:57:58;;;;;;;9.02;6.53;;;;;;;12.87;63.13;99728.22;5093475;28;20480;-27
2024/03/18 01:00:24;;;;;;;10.77;6.97;;;;;;;12.51;64.53;99741.22;5093259;28;20089;-27
2024/03/18 01:02:49;;;;;;;10.85;7.10;;;;;;;12.34;65.77;99734.78;5093328;28;20107;-27
2024/03/18 01:05:14;;;;;;;11.00;7.15;;;;;;;12.42;65.50;99731.03;5093265;28;20503;-27
2024/03/18 01:07:40;;;;;;;10.85;7.32;;;;;;;12.48;65.32;99733.66;5093329;28;20032;-27
2024/03/18 01:10:06;;;;;;;9.95;7.38;;;;;;;12.22;65.62;99728.47;5092978;28;20027;-26
2024/03/18 01:12:32;;;;;;;11.50;7.47;;;;;;;12.16;66.42;99735.50;5093250;28;20055;-26
2024/03/18 01:14:57;;;;;;;11.18;8.23;;;;;;;11.93;67.44;99736.84;5092819;28;20157;-26
2024/03/18 01:17:22;;;;;;;10.93;7.45;;;;;;;11.99;67.17;99742.34;5092976;28;20063;-27
2024/03/18 01:19:48;;;;;;;11.63;7.78;;;;;;;11.77;67.75;99739.97;5092787;28;20036;-26
2024/03/18 01:22:14;;;;;;;12.70;8.20;;;;;;;12.20;66.86;99730.53;5092882;28;20463;-27
2024/03/18 01:24:40;;;;;;;14.13;8.75;;;;;;;12.09;67.36;99730.22;5092721;28;20098;-27
2024/03/18 01:27:05;;;;;;;10.85;7.47;;;;;;;11.73;68.50;99736.09;5092783;28;20569;-27
2024/03/18 01:29:30;;;;;;;14.18;8.23;;;;;;;11.98;67.67;99744.22;5093136;28;20028;-27
2024/03/18 01:31:56;;;;;;;12.85;8.18;;;;;;;11.79;68.67;99739.75;5092513;28;20382;-27
2024/03/18 01:34:22;;;;;;;12.00;8.57;;;;;;;11.80;68.45;99731.53;5092567;28;20030;-26
2024/03/18 01:36:47;;;;;;;12.35;8.30;;;;;;;11.89;67.97;99740.13;5092270;28;20523;-26
2024/03/18 01:39:18;;;;;;;11.75;7.68;;;;;;;12.09;67.54;99732.88;5091428;28;20444;-25
2024/03/18 01:41:43;;;;;;;13.57;9.13;;;;;;;12.09;66.86;99730.22;5092486;28;20020;-26
2024/03/18 01:44:09;;;;;;;11.63;8.18;;;;;;;12.11;66.79;99730.00;5092912;28;20024;-26
2024/03/18 01:46:35;;;;;;;12.73;8.43;;;;;;;11.92;67.71;99723.75;5093158;28;20016;-26
2024/03/18 01:49:01;;;;;;;13.27;8.85;;;;;;;11.77;67.89;99725.81;5093282;28;20102;-28
2024/03/18 01:51:28;;;;;;;10.90;7.72;;;;;;;11.74;67.71;99722.53;5093002;28;20012;-26
2024/03/18 01:53:54;;;;;;;12.35;7.95;;;;;;;11.81;68.04;99730.50;5093022;28;20039;-26
2024/03/18 01:56:20;;;;;;;11.98;8.43;;;;;;;11.83;67.39;99728.44;5092869;28;20016;-26
2024/03/18 01:58:49;;;;;;;14.27;9.13;;;;;;;11.89;66.98;99724.13;5092853;28;20487;-26
2024/03/18 02:01:15;;;;;;;11.02;7.97;;;;;;;11.68;68.40;99723.38;5092642;28;20360;-26
2024/03/18 02:03:40;;;;;;;11.52;8.27;;;;;;;11.76;67.78;99725.00;5092904;28;20035;-26
2024/03/18 02:06:06;;;;;;;12.73;8.10;;;;;;;11.66;68.62;99724.63;5092915;28;20035;-26
2024/03/18 02:08:33;;;;;;;11.50;8.07;;;;;;;11.83;67.54;99722.31;5092797;28;20035;-26
2024/03/18 02:10:58;;;;;;;11.57;8.18;;;;;;;11.82;67.54;99726.81;5092487;28;20498;-26
2024/03/18 02:13:23;;;;;;;12.68;7.95;;;;;;;11.57;67.71;99724.03;5092624;28;20055;-26
2024/03/18 02:15:49;;;;;;;12.40;8.15;;;;;;;11.38;68.59;99704.41;5092358;28;20020;-26
2024/03/18 02:18:14;;;;;;;11.38;8.20;;;;;;;11.28;69.41;99725.34;5092395;28;20028;-26
2024/03/18 02:20:40;;;;;;;12.32;8.60;;;;;;;11.00;70.11;99715.75;5092384;28;20039;-26
2024/03/18 02:23:05;;;;;;;11.55;7.65;;;;;;;11.12;70.10;99718.63;5091848;28;20084;-26
2024/03/18 02:25:31;;;;;;;13.23;8.25;;;;;;;11.39;69.26;99714.06;5092330;28;20023;-26
2024/03/18 02:27:56;;;;;;;11.55;7.90;;;;;;;10.99;69.02;99708.81;5092395;28;20032;-26
2024/03/18 02:30:22;;;;;;;10.85;7.70;;;;;;;10.73;69.59;99713.13;5092060;28;20024;-26
2024/03/18 02:32:47;;;;;;;12.63;7.95;;;;;;;11.14;68.62;99717.38;5092093;28;20023;-26
2024/03/18 02:35:17;;;;;;;10.32;7.32;;;;;;;11.25;67.88;99712.44;5092135;28;20020;-27
2024/03/18 02:37:44;;;;;;;12.68;7.47;;;;;;;11.12;68.04;99710.63;5092023;28;20407;-26
2024/03/18 02:40:10;;;;;;;11.98;7.47;;;;;;;11.10;67.10;99707.34;5092306;28;20026;-26
2024/03/18 02:42:39;;;;;;;10.80;7.32;;;;;;;11.08;66.91;99709.41;5091607;28;20359;-26
2024/03/18 02:45:10;;;;;;;11.60;7.65;;;;;;;11.12;66.80;99700.00;5091900;28;20031;-26
2024/03/18 02:47:39;;;;;;;10.20;6.85;;;;;;;10.83;68.03;99712.69;5091748;28;20128;-26
2024/03/18 02:50:06;;;;;;;10.82;7.13;;;;;;;11.02;67.06;99696.91;5091711;28;20020;-26
2024/03/18 02:52:32;;;;;;;10.40;7.38;;;;;;;11.00;67.00;99707.78;5091345;28;20028;-26
2024/03/18 02:54:58;;;;;;;11.63;7.35;;;;;;;10.98;66.86;99709.81;5091827;28;20036;-26
2024/03/18 02:57:24;;;;;;;10.23;7.30;;;;;;;10.86;67.61;99708.81;5091588;28;20028;-26
2024/03/18 02:59:49;;;;;;;10.35;7.30;;;;;;;10.83;67.95;99712.69;5091801;28;20073;-26
2024/03/18 03:02:14;;;;;;;12.35;7.68;;;;;;;10.57;68.51;99710.88;5091637;28;20024;-26
2024/03/18 03:04:40;;;;;;;10.25;7.15;;;;;;;10.64;67.28;99687.75;5091541;28;20026;-25
2024/03/18 03:07:05;;;;;;;11.20;7.20;;;;;;;10.95;66.45;99713.72;5091341;28;20491;-27
2024/03/18 03:09:31;;;;;;;10.32;7.35;;;;;;;10.94;66.38;99712.06;5091676;28;20047;-25
2024/03/18 03:11:56;;;;;;;11.27;7.10;;;;;;;10.86;66.34;99704.31;5091431;28;20537;-26
2024/03/18 03:14:22;;;;;;;10.32;7.25;;;;;;;11.07;64.83;99705.09;5091240;28;20428;-26
2024/03/18 03:16:47;;;;;;;8.70;6.82;;;;;;;11.18;64.77;99709.81;5091228;28;20111;-26
2024/03/18 03:19:13;;;;;;;9.27;6.15;;;;;;;10.99;63.92;99708.81;5091349;28;20050;-25
2024/03/18 03:21:38;;;;;;;8.70;6.50;;;;;;;10.80;64.11;99699.81;5090820;28;20108;-26
2024/03/18 03:24:04;;;;;;;9.10;6.28;;;;;;;10.90;64.06;99708.19;5090972;28;20024;-26
2024/03/18 03:26:29;;;;;;;8.80;6.10;;;;;;;10.86;63.55;99714.16;5091447;28;20027;-26
2024/03/18 03:28:55;;;;;;;9.52;6.40;;;;;;;10.73;63.29;99707.78;5091060;28;20131;-27
2024/03/18 03:31:21;;;;;;;8.85;5.65;;;;;;;10.76;62.61;99714.56;5090840;28;20490;-26
2024/03/18 03:33:46;;;;;;;8.93;6.20;;;;;;;10.89;63.02;99705.72;5090892;28;20115;-26
2024/03/18 03:36:12;;;;;;;8.18;5.65;;;;;;;10.94;65.22;99709.41;5089609;28;20031;-27
2024/03/18 03:38:38;;;;;;;8.68;5.68;;;;;;;10.98;64.17;99709.81;5090995;28;20071;-26
2024/03/18 03:41:03;;;;;;;7.07;5.20;;;;;;;11.12;63.18;99718.63;5090587;28;20093;-26
2024/03/18 03:43:28;;;;;;;7.05;5.40;;;;;;;11.29;61.38;99717.16;5089908;28;20047;-26
2024/03/18 03:46:02;;;;;;;8.50;5.25;;;;;;;11.02;62.97;99710.22;5090571;28;20024;-27
2024/03/18 03:48:29;;;;;;;8.30;5.40;;;;;;;11.11;60.87;99704.47;5090922;28;20039;-27
2024/03/18 03:50:55;;;;;;;7.80;5.00;;;;;;;11.16;62.67;99703.88;5087294;28;20024;-25
2024/03/18 03:53:22;;;;;;;10.20;5.97;;;;;;;11.10;59.66;99702.00;5070602;28;20063;-25
2024/03/18 03:55:52;;;;;;;10.20;5.78;;;;;;;11.01;60.34;99700.63;5073812;28;20103;-26
2024/03/18 03:58:18;;;;;;;;;;;;;;;11.06;60.11;99692.81;5092362;28;20020;-26
2024/03/18 04:00:44;;;;;;;8.23;5.38;;;;;;;11.12;59.31;99707.97;5090042;28;19919;-26
2024/03/18 04:03:15;;;;;;;8.23;5.57;;;;;;;10.88;59.26;99710.25;5090638;28;20025;-26
2024/03/18 04:05:40;;;;;;;7.57;5.15;;;;;;;10.68;59.94;99710.28;5095329;28;20024;-26
2024/03/18 04:08:05;;;;;;;10.63;5.63;;;;;;;10.55;60.62;99703.09;5103845;28;20096;-26
2024/03/18 04:10:31;;;;;;;9.52;5.70;;;;;;;10.81;60.67;99701.44;5096449;28;20012;-26
2024/03/18 04:12:56;;;;;;;11.27;5.75;;;;;;;10.79;59.34;99692.84;5099074;28;20058;-26
2024/03/18 04:15:21;;;;;;;7.80;5.03;;;;;;;10.77;59.47;99692.22;5102140;28;20425;-26
2024/03/18 04:17:50;;;;;;;9.57;6.03;;;;;;;10.81;59.13;99693.44;5090672;28;20020;-26
2024/03/18 04:20:19;;;;;;;9.50;5.47;;;;;;;10.66;59.49;99687.53;5090243;28;20106;-26
2024/03/18 04:22:50;;;;;;;8.87;5.37;;;;;;;10.67;59.32;99682.00;5088797;28;20555;-26
2024/03/18 04:25:16;;;;;;;8.40;5.22;;;;;;;10.51;59.54;99690.41;5088101;28;20304;-26
2024/03/18 04:27:41;;;;;;;8.88;5.25;;;;;;;10.44;59.25;99695.72;5088184;28;20103;-26
2024/03/18 04:30:13;;;;;;;7.72;5.28;;;;;;;10.22;59.72;99681.72;5088221;28;20096;-25
2024/03/18 04:32:40;;;;;;;7.72;4.65;;;;;;;10.33;59.80;99686.50;5087945;28;20114;-25
2024/03/18 04:35:06;;;;;;;7.32;5.20;;;;;;;10.36;59.39;99687.94;5088218;28;20122;-26
2024/03/18 04:37:34;;;;;;;8.23;4.80;;;;;;;10.45;59.57;99697.38;5089073;28;20043;-25
2024/03/18 04:40:06;;;;;;;7.38;4.75;;;;;;;10.31;59.54;99695.69;5089649;28;20035;-26
2024/03/18 04:42:31;;;;;;;7.57;4.70;;;;;;;10.48;58.51;99698.78;5090244;28;20036;-25
2024/03/18 04:44:57;;;;;;;7.07;4.50;;;;;;;10.60;58.55;99699.00;5089824;28;20032;-27
2024/03/18 04:47:22;;;;;;;8.05;4.75;;;;;;;10.84;57.90;99697.56;5089424;28;20115;-26
2024/03/18 04:49:48;;;;;;;7.68;5.05;;;;;;;11.06;56.82;99698.97;5089445;28;20067;-26
2024/03/18 04:52:13;;;;;;;7.72;5.03;;;;;;;11.17;57.63;99694.84;5089695;28;20119;-27
2024/03/18 04:54:39;;;;;;;7.05;5.22;;;;;;;11.33;56.02;99699.72;5089273;28;20069;-26
2024/03/18 04:57:04;;;;;;;8.25;4.60;;;;;;;11.15;56.07;99703.03;5091174;28;20100;-26
2024/03/18 04:59:29;;;;;;;6.15;4.70;;;;;;;11.24;55.51;99710.81;5073354;28;20032;-27
2024/03/18 05:01:55;;;;;;;8.68;5.28;;;;;;;11.39;55.38;99714.06;5073666;28;20464;-27
2024/03/18 05:04:20;;;;;;;7.10;4.60;;;;;;;11.61;53.94;99713.78;5073544;28;20107;-26
2024/03/18 05:06:46;;;;;;;7.22;4.47;;;;;;;12.13;53.48;99709.25;5073292;28;20025;-27
2024/03/18 05:09:12;;;;;;;6.82;4.43;;;;;;;12.42;51.56;99704.34;5073341;28;20025;-28
2024/03/18 05:11:37;;;;;;;10.25;4.35;;;;;;;12.70;49.99;99709.28;5073287;28;20396;-28
2024/03/18 05:14:03;;;;;;;5.00;3.90;;;;;;;12.58;50.33;99706.47;5073011;28;20036;-26
2024/03/18 05:16:35;;;;;;;6.72;4.32;;;;;;;12.90;49.48;99709.91;5072495;28;20166;-27
2024/03/18 05:19:01;;;;;;;6.50;4.43;;;;;;;13.08;50.05;99711.00;5072622;28;20526;-27
2024/03/18 05:21:26;;;;;;;7.22;4.50;;;;;;;13.30;48.48;99709.53;5072863;28;20070;-27
2024/03/18 05:23:52;;;;;;;6.72;4.60;;;;;;;13.32;48.30;99708.50;5073367;28;20504;-26
2024/03/18 05:26:17;;;;;;;7.95;5.60;;;;;;;13.75;47.16;99719.13;5088657;28;20426;-26
2024/03/18 05:28:42;;;;;;;19.00;11.60;;;;;;;14.12;46.64;99694.13;5092350;28;20120;-27
2024/03/18 05:31:08;;;;;;;9.30;5.22;;;;;;;15.10;44.24;99706.19;5091615;28;20113;-27
2024/03/18 05:33:33;;;;;;;15.70;9.18;;;;;;;14.89;44.55;99712.94;5091761;28;20039;-27
2024/03/18 05:35:58;;;;;;;9.25;6.20;;;;;;;14.76;43.79;99711.31;5092433;28;20060;-28
2024/03/18 05:38:24;;;;;;;11.48;5.00;;;;;;;14.77;44.25;99712.91;5091754;28;20508;-27
2024/03/18 05:40:49;;;;;;;7.85;5.15;;;;;;;14.70;44.33;99714.91;5091824;28;20032;-29
2024/03/18 05:43:14;;;;;;;8.32;5.05;;;;;;;15.61;42.91;99719.84;5091780;28;20456;-27
2024/03/18 05:45:40;;;;;;;6.50;3.90;;;;;;;15.89;41.37;99718.28;5091489;28;20476;-27
2024/03/18 05:48:06;;;;;;;7.18;3.75;;;;;;;16.13;40.77;99721.72;5091786;28;20024;-28
2024/03/18 05:50:32;;;;;;;6.75;3.72;;;;;;;16.37;40.30;99717.84;5092401;28;20455;-28
2024/03/18 05:52:57;;;;;;;5.93;3.22;;;;;;;15.77;40.69;99721.03;5092752;28;20063;-29
2024/03/18 05:55:23;;;;;;;5.15;3.15;;;;;;;16.77;39.81;99713.38;5092744;28;20100;-27
2024/03/18 05:57:48;;;;;;;5.18;3.42;;;;;;;16.76;39.03;99711.75;5071039;28;20040;-28
2024/03/18 06:00:14;;;;;;;5.40;3.47;;;;;;;16.20;39.82;99714.31;5072447;28;20066;-27
2024/03/18 06:02:40;;;;;;;7.38;3.40;;;;;;;16.56;39.28;99696.13;5072995;28;20048;-27
2024/03/18 06:05:05;;;;;;;4.78;3.30;;;;;;;17.07;38.65;99702.31;5072655;28;20024;-27
2024/03/18 06:07:31;;;;;;;5.78;3.42;;;;;;;18.18;37.09;99705.81;5071793;28;20124;-27
2024/03/18 06:09:56;;;;;;;7.30;3.45;;;;;;;17.41;37.38;99696.84;5072422;28;20024;-27
2024/03/18 06:12:25;;;;;;;6.78;3.53;;;;;;;17.18;37.40;99693.31;5072054;28;20500;-28
2024/03/18 06:14:50;;;;;;;9.00;3.85;;;;;;;18.50;36.54;99695.06;5072195;28;20032;-27
2024/03/18 06:17:16;;;;;;;6.68;3.38;;;;;;;18.40;35.50;99697.66;5072027;28;20116;-26
2024/03/18 06:19:41;;;;;;;4.43;3.28;;;;;;;18.10;36.04;99684.72;5072053;28;20032;-28
2024/03/18 06:22:20;;;;;;;5.22;3.25;;;;;;;18.07;35.95;99683.38;5072098;28;20028;-28
2024/03/18 06:27:29;;;;;;;6.28;2.90;;;;;;;17.63;35.29;99671.81;5072221;28;20042;-28
2024/03/18 06:29:54;;;;;;;6.43;2.55;;;;;;;17.35;35.99;99687.91;5072231;28;20025;-27
2024/03/18 06:32:20;;;;;;;4.40;2.90;;;;;;;17.51;35.41;99682.72;5072242;28;20024;-28
2024/03/18 06:34:45;;;;;;;3.88;2.50;;;;;;;17.72;35.06;99671.09;5071710;28;20040;-27
2024/03/18 06:37:11;;;;;;;5.00;2.53;;;;;;;18.80;33.94;99674.00;5071924;28;20057;-28
2024/03/18 06:39:36;;;;;;;6.07;2.30;;;;;;;18.44;33.49;99677.22;5071950;28;20112;-27
2024/03/18 06:42:01;;;;;;;4.93;2.58;;;;;;;18.60;33.49;99671.97;5071880;28;20020;-27
2024/03/18 06:44:27;;;;;;;5.60;2.53;;;;;;;19.16;32.51;99668.84;5071983;28;20504;-26
2024/03/18 06:46:52;;;;;;;3.35;2.20;;;;;;;20.08;31.83;99664.56;5071801;28;20048;-26
2024/03/18 06:49:17;;;;;;;4.93;2.15;;;;;;;19.47;31.43;99676.00;5071680;28;20081;-27
2024/03/18 06:51:43;;;;;;;7.18;2.40;;;;;;;18.76;32.79;99669.13;5071640;28;20104;-27
2024/03/18 06:54:09;;;;;;;4.75;2.35;;;;;;;19.13;32.76;99668.31;5071991;28;20036;-27
2024/03/18 06:56:34;;;;;;;5.50;2.60;;;;;;;20.21;32.06;99676.75;5081778;28;20024;-28
2024/03/18 06:58:59;;;;;;;5.05;2.30;;;;;;;20.77;30.66;99665.16;5091664;28;20051;-26
2024/03/18 07:01:25;;;;;;;5.63;2.60;;;;;;;19.90;31.38;99659.69;5091607;28;20403;-30
2024/03/18 07:03:50;;;;;;;4.75;2.13;;;;;;;20.02;31.07;99649.44;5091138;28;20032;-27
2024/03/18 07:06:15;;;;;;;6.00;2.45;;;;;;;19.98;30.54;99651.06;5091381;28;20099;-26
2024/03/18 07:08:41;;;;;;;8.95;2.33;;;;;;;20.78;29.95;99664.06;5091511;28;20103;-27
2024/03/18 07:11:06;;;;;;;5.05;2.35;;;;;;;20.77;29.44;99662.47;5091745;28;20024;-28
2024/03/18 07:13:32;;;;;;;5.57;2.30;;;;;;;19.92;30.76;99660.25;5091707;28;20105;-28
2024/03/18 07:15:58;;;;;;;9.30;3.78;;;;;;;20.97;29.50;99656.19;5091350;28;20027;-26
2024/03/18 07:18:24;;;;;;;7.72;4.00;;;;;;;21.46;28.90;99650.09;5091385;28;20472;-28
2024/03/18 07:20:52;;;;;;;3.22;2.15;;;;;;;20.38;29.71;99656.78;5091407;28;20028;-28
2024/03/18 07:23:20;;;;;;;5.93;3.10;;;;;;;19.56;31.40;99646.63;5091399;28;20028;-27
2024/03/18 07:25:45;;;;;;;6.65;2.45;;;;;;;19.16;31.54;99633.78;5091467;28;20115;-27
2024/03/18 07:28:11;;;;;;;4.72;2.67;;;;;;;19.91;31.31;99651.34;5091314;28;20138;-27
2024/03/18 07:30:36;;;;;;;4.65;2.10;;;;;;;20.42;30.03;99647.84;5091151;28;20028;-27
2024/03/18 07:33:02;;;;;;;5.38;2.38;;;;;;;20.91;29.44;99651.88;5091832;28;20475;-27
2024/03/18 07:35:27;;;;;;;2.90;2.10;;;;;;;19.83;30.47;99642.94;5091115;28;20103;-27
2024/03/18 07:37:53;;;;;;;7.85;2.33;;;;;;;19.46;30.74;99644.69;5091352;28;20546;-29
2024/03/18 07:40:18;;;;;;;4.10;2.50;;;;;;;19.62;30.48;99639.34;5091046;28;20028;-28
2024/03/18 07:42:43;;;;;;;2.75;2.00;;;;;;;21.02;28.83;99636.44;5090863;28;20024;-28
2024/03/18 07:45:09;;;;;;;2.85;2.05;;;;;;;20.12;29.64;99643.25;5091143;28;20032;-28
2024/03/18 07:47:35;;;;;;;3.85;2.33;;;;;;;19.67;29.66;99639.38;5090757;28;20054;-29
2024/03/18 07:50:04;;;;;;;3.67;2.30;;;;;;;19.53;30.06;99637.19;5090780;28;20099;-27
2024/03/18 07:52:29;;;;;;;3.90;2.13;;;;;;;19.78;29.82;99635.66;5091355;28;20034;-27
2024/03/18 07:54:55;;;;;;;5.75;2.00;;;;;;;20.49;29.22;99626.75;5090841;28;20028;-29
2024/03/18 07:57:20;;;;;;;3.95;1.88;;;;;;;20.48;28.64;99621.63;5091178;28;20507;-28
2024/03/18 07:59:45;;;;;;;6.20;2.10;;;;;;;20.82;28.71;99619.16;5090691;28;20102;-28
2024/03/18 08:02:11;;;;;;;5.75;1.90;;;;;;;20.03;29.70;99629.47;5090865;28;20024;-28
2024/03/18 08:04:36;;;;;;;2.42;1.80;;;;;;;19.96;29.14;99622.72;5090566;28;20024;-28
2024/03/18 08:07:02;;;;;;;6.25;1.90;;;;;;;20.34;29.24;99625.97;5091029;28;20031;-27
2024/03/18 08:09:27;;;;;;;3.85;1.80;;;;;;;20.50;28.86;99620.28;5090401;28;20383;-26
2024/03/18 08:11:53;;;;;;;4.68;2.10;;;;;;;20.29;29.25;99616.75;5090999;28;20042;-27
2024/03/18 08:14:18;;;;;;;3.33;1.70;;;;;;;20.45;29.23;99617.59;5091030;28;20085;-28
2024/03/18 08:16:44;;;;;;;3.22;1.70;;;;;;;20.45;29.09;99616.78;5090810;28;20028;-27
2024/03/18 08:19:09;;;;;;;1.98;1.50;;;;;;;20.19;29.89;99614.06;5090698;28;20490;-27
2024/03/18 08:21:35;;;;;;;2.15;1.85;;;;;;;20.29;29.67;99608.66;5090506;28;20036;-27
2024/03/18 08:24:02;;;;;;;2.92;1.70;;;;;;;20.14;29.89;99611.38;5090420;28;20035;-27
2024/03/18 08:26:34;;;;;;;3.25;1.88;;;;;;;20.90;29.11;99612.38;5090334;28;20046;-27
2024/03/18 08:29:00;;;;;;;3.83;1.80;;;;;;;20.57;29.10;99592.97;5090553;28;20108;-27
2024/03/18 08:31:26;;;;;;;3.17;1.77;;;;;;;20.52;28.97;99579.44;5093370;28;20449;-28
2024/03/18 08:33:52;;;;;;;3.97;1.70;;;;;;;20.40;29.25;99604.06;5094277;28;20107;-26
2024/03/18 08:36:18;;;;;;;3.72;1.63;;;;;;;20.62;29.17;99597.56;5094997;28;20100;-27
2024/03/18 08:38:43;;;;;;;5.65;1.88;;;;;;;20.94;29.23;99593.72;5094159;28;20151;-28
2024/03/18 08:41:10;;;;;;;4.68;1.90;;;;;;;21.17;28.75;99593.09;5094370;28;20115;-28
2024/03/18 08:43:35;;;;;;;4.30;1.70;;;;;;;21.34;28.51;99594.63;5094651;28;20024;-27
2024/03/18 08:46:06;;;;;;;3.33;1.95;;;;;;;21.42;28.86;99584.03;5094362;28;20028;-28
2024/03/18 08:48:32;;;;;;;1.85;1.50;;;;;;;21.07;29.00;99583.09;5093077;28;20414;-28
2024/03/18 08:50:57;;;;;;;5.90;1.73;;;;;;;20.51;29.84;99589.47;5094617;28;20096;-26
2024/03/18 08:53:22;;;;;;;2.83;1.60;;;;;;;20.90;29.58;99579.94;5094385;28;20103;-27
2024/03/18 08:55:49;;;;;;;2.58;1.70;;;;;;;20.96;29.79;99578.84;5094182;28;20498;-27
2024/03/18 08:58:14;;;;;;;4.60;1.65;;;;;;;21.33;28.33;99572.19;5093841;28;20038;-28
2024/03/18 09:00:39;;;;;;;2.47;1.77;;;;;;;20.97;29.64;99575.03;5094197;28;20024;-27
2024/03/18 09:03:05;;;;;;;5.97;1.80;;;;;;;20.89;29.66;99567.50;5094005;28;20028;-28
2024/03/18 09:05:31;;;;;;;2.50;1.60;;;;;;;20.69;30.18;99565.66;5094482;28;20052;-29
2024/03/18 09:07:56;;;;;;;6.32;1.90;;;;;;;20.68;31.09;99569.47;5093921;28;20024;-27
2024/03/18 09:10:22;;;;;;;2.05;1.75;;;;;;;20.87;30.66;99570.47;5094317;28;20020;-27
2024/03/18 09:12:48;;;;;;;4.38;1.85;;;;;;;20.63;30.70;99566.78;5093838;28;20115;-29
2024/03/18 09:15:14;;;;;;;3.25;1.83;;;;;;;20.54;30.81;99560.25;5094040;28;20066;-26
2024/03/18 09:17:40;;;;;;;2.78;1.90;;;;;;;21.32;30.09;99554.31;5093664;28;20032;-27
2024/03/18 09:20:09;;;;;;;2.25;1.65;;;;;;;20.70;30.26;99546.47;5093580;28;20480;-27
2024/03/18 09:22:35;;;;;;;4.63;2.47;;;;;;;21.12;30.22;99530.09;5094063;28;20111;-26
2024/03/18 09:25:03;;;;;;;4.53;2.58;;;;;;;20.91;30.66;99537.50;5093719;28;20510;-26
2024/03/18 09:27:28;;;;;;;3.83;2.50;;;;;;;20.93;30.33;99535.31;5093964;28;20061;-28
2024/03/18 09:29:54;;;;;;;2.65;2.00;;;;;;;21.58;30.20;99535.25;5093879;28;20107;-28
2024/03/18 09:32:20;;;;;;;4.07;2.08;;;;;;;21.23;30.11;99523.53;5093774;28;20399;-28
2024/03/18 09:34:45;;;;;;;4.78;1.90;;;;;;;21.32;30.28;99516.41;5093841;28;20070;-27
2024/03/18 09:37:11;;;;;;;3.92;1.70;;;;;;;21.26;31.08;99517.56;5093327;28;20051;-29
2024/03/18 09:39:38;;;;;;;3.40;1.67;;;;;;;21.37;29.98;99508.28;5093445;28;20039;-28
2024/03/18 09:42:04;;;;;;;3.70;2.30;;;;;;;22.04;28.93;99507.78;5091980;28;20051;-28
2024/03/18 09:44:33;;;;;;;4.38;2.17;;;;;;;21.59;29.45;99498.94;5093431;28;20132;-28
2024/03/18 09:46:59;;;;;;;6.13;2.35;;;;;;;21.29;30.14;99511.59;5093489;28;20057;-29
2024/03/18 09:49:25;;;;;;;1.98;1.63;;;;;;;21.50;29.77;99498.75;5093895;28;20115;-29
2024/03/18 09:51:51;;;;;;;3.42;1.60;;;;;;;21.44;30.08;99497.19;5093419;28;20020;-29
2024/03/18 09:54:19;;;;;;;2.85;1.67;;;;;;;21.13;30.02;99483.00;5093154;28;20035;-28
2024/03/18 09:56:51;;;;;;;3.03;1.60;;;;;;;21.33;29.62;99468.53;5092994;28;20024;-29
2024/03/18 09:59:16;;;;;;;3.03;1.90;;;;;;;21.34;29.60;99487.19;5093070;28;20030;-28
2024/03/18 10:01:41;;;;;;;5.45;1.90;;;;;;;21.29;30.08;99477.22;5093106;28;20016;-30
2024/03/18 10:04:07;;;;;;;2.58;1.70;;;;;;;21.43;29.82;99473.88;5093204;28;20118;-29
2024/03/18 10:06:33;;;;;;;4.85;1.80;;;;;;;21.80;29.17;99470.63;5092881;28;20024;-28
2024/03/18 10:08:59;;;;;;;1.77;1.63;;;;;;;21.63;29.11;99464.81;5092849;28;20093;-29
2024/03/18 10:11:24;;;;;;;3.47;1.73;;;;;;;21.72;29.08;99454.97;5092977;28;20028;-29
2024/03/18 10:13:49;;;;;;;3.10;1.60;;;;;;;21.13;29.44;99467.56;5092385;28;20492;-31
2024/03/18 10:16:15;;;;;;;4.22;1.60;;;;;;;21.92;28.48;99461.31;5092677;28;20093;-30
2024/03/18 10:18:40;;;;;;;1.60;1.50;;;;;;;22.11;27.81;99461.41;5092823;28;20024;-28
2024/03/18 10:21:08;;;;;;;2.08;1.52;;;;;;;22.05;27.83;99458.75;5092766;28;20030;-30
2024/03/18 10:23:34;;;;;;;2.25;1.60;;;;;;;21.88;28.32;99452.16;5092776;28;20456;-31
2024/03/18 10:26:02;;;;;;;1.65;1.50;;;;;;;21.54;28.46;99450.28;5092715;28;20111;-29
2024/03/18 10:28:28;;;;;;;3.47;1.80;;;;;;;21.44;28.12;99443.84;5093004;28;20020;-29
2024/03/18 10:30:56;;;;;;;4.30;1.67;;;;;;;21.54;28.55;99442.16;5092418;28;20020;-29
2024/03/18 10:33:22;;;;;;;1.80;1.48;;;;;;;21.61;28.26;99427.19;5092072;28;20150;-28
2024/03/18 10:35:49;;;;;;;2.60;1.70;;;;;;;21.00;28.65;99435.72;5092198;28;20040;-29
2024/03/18 10:38:25;;;;;;;2.28;1.70;;;;;;;21.27;29.07;99425.28;5092105;28;20450;-28
2024/03/18 10:40:54;;;;;;;2.97;1.70;;;;;;;21.82;27.98;99413.47;5092131;28;20024;-27
2024/03/18 10:43:35;;;;;;;2.35;1.52;;;;;;;22.39;27.46;99419.94;5092032;28;20042;-27
2024/03/18 10:46:02;;;;;;;2.20;1.50;;;;;;;22.38;27.40;99412.09;5092255;28;20116;-27
2024/03/18 10:48:28;;;;;;;5.03;1.50;;;;;;;22.20;27.16;99408.19;5092171;28;20020;-27
2024/03/18 10:50:55;;;;;;;2.97;1.70;;;;;;;21.16;28.70;99404.00;5091944;28;20015;-26
2024/03/18 10:53:25;;;;;;;4.05;1.40;;;;;;;21.65;28.34;99392.25;5091518;28;20031;-26
2024/03/18 10:55:55;;;;;;;2.10;1.55;;;;;;;22.10;27.94;99389.34;5091790;28;20498;-28
2024/03/18 10:58:26;;;;;;;4.38;1.58;;;;;;;22.82;27.09;99376.50;5091689;28;20040;-27
2024/03/18 11:00:52;;;;;;;2.17;1.63;;;;;;;22.60;26.72;99384.44;5091622;28;20035;-28
2024/03/18 11:03:22;;;;;;;3.70;1.42;;;;;;;22.53;27.61;99381.25;5091873;28;20427;-27
2024/03/18 11:05:50;;;;;;;3.58;1.60;;;;;;;22.36;27.02;99376.31;5091953;28;20071;-27
2024/03/18 11:08:20;;;;;;;3.28;1.42;;;;;;;22.36;27.35;99373.63;5091639;28;20548;-27
2024/03/18 11:10:47;;;;;;;1.85;1.58;;;;;;;22.33;27.02;99369.59;5091633;28;20107;-27
2024/03/18 11:13:14;;;;;;;1.77;1.35;;;;;;;21.31;28.22;99357.88;5091457;28;20480;-28
2024/03/18 11:16:07;;;;;;;1.63;1.27;;;;;;;21.65;28.15;99359.75;5091783;28;20086;-28
2024/03/18 11:18:34;;;;;;;2.70;1.60;;;;;;;21.94;27.18;99346.16;5081328;28;20036;-26
2024/03/18 11:21:01;;;;;;;1.88;1.52;;;;;;;21.60;27.63;99340.84;5091311;28;20024;-27
2024/03/18 11:23:33;;;;;;;2.33;1.55;;;;;;;22.24;27.73;99341.50;5091578;28;20511;-27
2024/03/18 11:26:07;;;;;;;1.98;1.50;;;;;;;21.91;27.79;99337.81;5091477;28;20027;-27
2024/03/18 11:28:36;;;;;;;4.15;1.63;;;;;;;22.25;27.43;99332.28;5091362;28;20032;-27
2024/03/18 11:31:13;;;;;;;2.25;1.52;;;;;;;22.32;26.98;99332.72;5091112;28;20408;-28